Airport ID:KTSP
Update Time (UTC):03 APR 20 03:08
Wind Speed (Knots):7
Wind Direction (Magnetic):270
Temperature (°C):5
Dew Point (°C):-5
Humidity (%):49
Altimeter (inHg):30.04
Density Altitude (Feet):
Visibility (Miles):10
Clouds (Hundreds of feet):CLR
Present Weather:NO PRECIPITATION
METAR:METAR KTSP 030305Z AUTO 29008KT 10SM CLR 05/M05 A3004 RMK AO2

The data displayed is for advisory purposes only and is not to be used for flight planning or operations.

This page is not automatically refreshed. Reload the page to see current data.